sensor_id;sensor_type;location;lat;lon;timestamp;P1;durP1;ratioP1;P2;durP2;ratioP2
76786;SDS011;65739;51.482;5.702;2024-02-04T00:00:03;18.33;;;11.18;;
76786;SDS011;65739;51.482;5.702;2024-02-04T00:02:30;17.33;;;11.60;;
76786;SDS011;65739;51.482;5.702;2024-02-04T00:04:56;17.83;;;11.45;;
76786;SDS011;65739;51.482;5.702;2024-02-04T00:07:21;15.43;;;10.75;;
76786;SDS011;65739;51.482;5.702;2024-02-04T00:09:47;16.48;;;11.50;;
76786;SDS011;65739;51.482;5.702;2024-02-04T00:12:12;13.15;;;10.38;;
76786;SDS011;65739;51.482;5.702;2024-02-04T00:14:38;19.65;;;10.73;;
76786;SDS011;65739;51.482;5.702;2024-02-04T00:17:03;16.58;;;11.48;;
76786;SDS011;65739;51.482;5.702;2024-02-04T00:19:29;16.13;;;10.93;;
76786;SDS011;65739;51.482;5.702;2024-02-04T00:21:54;17.27;;;10.63;;
76786;SDS011;65739;51.482;5.702;2024-02-04T00:24:20;14.15;;;10.55;;
76786;SDS011;65739;51.482;5.702;2024-02-04T00:26:46;14.65;;;10.48;;
76786;SDS011;65739;51.482;5.702;2024-02-04T00:29:11;15.15;;;10.63;;
76786;SDS011;65739;51.482;5.702;2024-02-04T00:31:37;15.20;;;10.45;;
76786;SDS011;65739;51.482;5.702;2024-02-04T00:34:03;14.88;;;11.07;;
76786;SDS011;65739;51.482;5.702;2024-02-04T00:36:29;14.20;;;10.40;;
76786;SDS011;65739;51.482;5.702;2024-02-04T00:38:55;15.35;;;10.93;;
76786;SDS011;65739;51.482;5.702;2024-02-04T00:41:21;16.52;;;11.38;;
76786;SDS011;65739;51.482;5.702;2024-02-04T00:43:46;13.93;;;10.07;;
76786;SDS011;65739;51.482;5.702;2024-02-04T00:46:12;14.38;;;9.90;;
76786;SDS011;65739;51.482;5.702;2024-02-04T00:48:38;14.75;;;10.80;;
76786;SDS011;65739;51.482;5.702;2024-02-04T00:51:05;14.57;;;10.82;;
76786;SDS011;65739;51.482;5.702;2024-02-04T00:53:31;16.42;;;11.18;;
76786;SDS011;65739;51.482;5.702;2024-02-04T00:56:03;14.70;;;10.05;;
76786;SDS011;65739;51.482;5.702;2024-02-04T00:58:29;14.32;;;9.82;;
76786;SDS011;65739;51.482;5.702;2024-02-04T01:00:54;13.75;;;9.85;;
76786;SDS011;65739;51.482;5.702;2024-02-04T01:03:20;15.90;;;9.98;;
76786;SDS011;65739;51.482;5.702;2024-02-04T01:05:46;14.10;;;10.25;;
76786;SDS011;65739;51.482;5.702;2024-02-04T01:08:11;13.40;;;9.90;;
76786;SDS011;65739;51.482;5.702;2024-02-04T01:10:37;13.20;;;9.98;;
76786;SDS011;65739;51.482;5.702;2024-02-04T01:13:03;13.18;;;10.07;;
76786;SDS011;65739;51.482;5.702;2024-02-04T01:15:29;16.45;;;10.20;;
76786;SDS011;65739;51.482;5.702;2024-02-04T01:17:54;12.82;;;9.70;;
76786;SDS011;65739;51.482;5.702;2024-02-04T01:20:20;16.02;;;10.60;;
76786;SDS011;65739;51.482;5.702;2024-02-04T01:22:45;12.73;;;10.02;;
76786;SDS011;65739;51.482;5.702;2024-02-04T01:25:11;16.83;;;11.57;;
76786;SDS011;65739;51.482;5.702;2024-02-04T01:27:36;15.75;;;11.05;;
76786;SDS011;65739;51.482;5.702;2024-02-04T01:30:02;15.95;;;10.93;;
76786;SDS011;65739;51.482;5.702;2024-02-04T01:32:28;15.30;;;10.90;;
76786;SDS011;65739;51.482;5.702;2024-02-04T01:34:53;14.63;;;11.10;;
76786;SDS011;65739;51.482;5.702;2024-02-04T01:37:19;18.02;;;11.48;;
76786;SDS011;65739;51.482;5.702;2024-02-04T01:39:44;16.30;;;11.25;;
76786;SDS011;65739;51.482;5.702;2024-02-04T01:42:10;15.07;;;11.02;;
76786;SDS011;65739;51.482;5.702;2024-02-04T01:44:36;15.77;;;10.75;;
76786;SDS011;65739;51.482;5.702;2024-02-04T01:47:01;17.00;;;10.73;;
76786;SDS011;65739;51.482;5.702;2024-02-04T01:49:28;14.93;;;11.10;;
76786;SDS011;65739;51.482;5.702;2024-02-04T01:51:54;14.75;;;10.50;;
76786;SDS011;65739;51.482;5.702;2024-02-04T01:54:21;15.23;;;10.00;;
76786;SDS011;65739;51.482;5.702;2024-02-04T01:56:49;17.27;;;10.38;;
76786;SDS011;65739;51.482;5.702;2024-02-04T01:59:16;14.75;;;10.55;;
76786;SDS011;65739;51.482;5.702;2024-02-04T02:01:42;15.40;;;10.13;;
76786;SDS011;65739;51.482;5.702;2024-02-04T02:04:08;13.55;;;10.00;;
76786;SDS011;65739;51.482;5.702;2024-02-04T02:06:34;14.35;;;10.02;;
76786;SDS011;65739;51.482;5.702;2024-02-04T02:09:06;14.75;;;10.40;;
76786;SDS011;65739;51.482;5.702;2024-02-04T02:11:37;14.77;;;10.45;;
76786;SDS011;65739;51.482;5.702;2024-02-04T02:14:07;20.13;;;11.40;;
76786;SDS011;65739;51.482;5.702;2024-02-04T02:16:39;14.18;;;10.43;;
76786;SDS011;65739;51.482;5.702;2024-02-04T02:19:25;15.80;;;10.73;;
76786;SDS011;65739;51.482;5.702;2024-02-04T02:24:46;17.58;;;10.75;;
76786;SDS011;65739;51.482;5.702;2024-02-04T02:27:12;15.73;;;10.20;;
76786;SDS011;65739;51.482;5.702;2024-02-04T02:29:37;15.52;;;10.00;;
76786;SDS011;65739;51.482;5.702;2024-02-04T02:32:03;13.82;;;9.32;;
76786;SDS011;65739;51.482;5.702;2024-02-04T02:34:29;13.43;;;9.65;;
76786;SDS011;65739;51.482;5.702;2024-02-04T02:39:54;20.27;;;10.85;;
76786;SDS011;65739;51.482;5.702;2024-02-04T02:42:24;17.45;;;10.75;;
76786;SDS011;65739;51.482;5.702;2024-02-04T02:44:51;20.48;;;10.88;;
76786;SDS011;65739;51.482;5.702;2024-02-04T02:47:18;20.42;;;11.18;;
76786;SDS011;65739;51.482;5.702;2024-02-04T02:49:45;20.85;;;11.75;;
76786;SDS011;65739;51.482;5.702;2024-02-04T02:52:11;17.27;;;10.95;;
76786;SDS011;65739;51.482;5.702;2024-02-04T02:54:36;20.63;;;11.65;;
76786;SDS011;65739;51.482;5.702;2024-02-04T02:57:02;20.42;;;11.70;;
76786;SDS011;65739;51.482;5.702;2024-02-04T02:59:28;24.05;;;12.05;;
76786;SDS011;65739;51.482;5.702;2024-02-04T03:01:53;19.92;;;12.07;;
76786;SDS011;65739;51.482;5.702;2024-02-04T03:04:19;22.13;;;12.50;;
76786;SDS011;65739;51.482;5.702;2024-02-04T03:06:44;23.08;;;12.20;;
76786;SDS011;65739;51.482;5.702;2024-02-04T03:09:10;23.40;;;13.80;;
76786;SDS011;65739;51.482;5.702;2024-02-04T03:11:36;21.80;;;12.48;;
76786;SDS011;65739;51.482;5.702;2024-02-04T03:14:02;23.60;;;12.40;;
76786;SDS011;65739;51.482;5.702;2024-02-04T03:16:28;29.30;;;12.93;;
76786;SDS011;65739;51.482;5.702;2024-02-04T03:18:53;24.45;;;12.57;;
76786;SDS011;65739;51.482;5.702;2024-02-04T03:21:19;25.35;;;11.48;;
76786;SDS011;65739;51.482;5.702;2024-02-04T03:23:45;23.30;;;11.30;;
76786;SDS011;65739;51.482;5.702;2024-02-04T03:26:11;27.30;;;11.55;;
76786;SDS011;65739;51.482;5.702;2024-02-04T03:28:37;20.25;;;11.02;;
76786;SDS011;65739;51.482;5.702;2024-02-04T03:31:02;21.50;;;10.90;;
76786;SDS011;65739;51.482;5.702;2024-02-04T03:33:28;20.83;;;11.15;;
76786;SDS011;65739;51.482;5.702;2024-02-04T03:35:54;16.00;;;9.23;;
76786;SDS011;65739;51.482;5.702;2024-02-04T03:38:19;18.70;;;10.85;;
76786;SDS011;65739;51.482;5.702;2024-02-04T03:40:45;21.10;;;10.23;;
76786;SDS011;65739;51.482;5.702;2024-02-04T03:43:11;18.35;;;10.20;;
76786;SDS011;65739;51.482;5.702;2024-02-04T03:45:36;18.95;;;9.52;;
76786;SDS011;65739;51.482;5.702;2024-02-04T03:48:02;26.42;;;10.18;;
76786;SDS011;65739;51.482;5.702;2024-02-04T03:50:28;20.13;;;9.90;;
76786;SDS011;65739;51.482;5.702;2024-02-04T03:52:54;17.33;;;9.63;;
76786;SDS011;65739;51.482;5.702;2024-02-04T03:55:19;18.45;;;9.88;;
76786;SDS011;65739;51.482;5.702;2024-02-04T03:57:45;19.20;;;9.80;;
76786;SDS011;65739;51.482;5.702;2024-02-04T04:00:11;22.10;;;10.13;;
76786;SDS011;65739;51.482;5.702;2024-02-04T04:02:37;21.13;;;10.00;;
76786;SDS011;65739;51.482;5.702;2024-02-04T04:05:03;21.13;;;9.75;;
76786;SDS011;65739;51.482;5.702;2024-02-04T04:07:29;20.98;;;9.85;;
76786;SDS011;65739;51.482;5.702;2024-02-04T04:09:55;18.63;;;10.43;;
76786;SDS011;65739;51.482;5.702;2024-02-04T04:12:21;18.55;;;9.43;;
76786;SDS011;65739;51.482;5.702;2024-02-04T04:14:46;19.23;;;9.40;;
76786;SDS011;65739;51.482;5.702;2024-02-04T04:17:12;21.77;;;9.85;;
76786;SDS011;65739;51.482;5.702;2024-02-04T04:19:38;15.50;;;9.43;;
76786;SDS011;65739;51.482;5.702;2024-02-04T04:22:04;20.63;;;9.65;;
76786;SDS011;65739;51.482;5.702;2024-02-04T04:24:30;23.60;;;9.85;;
76786;SDS011;65739;51.482;5.702;2024-02-04T04:26:55;21.10;;;9.18;;
76786;SDS011;65739;51.482;5.702;2024-02-04T04:29:21;19.55;;;8.98;;
76786;SDS011;65739;51.482;5.702;2024-02-04T04:31:46;19.77;;;9.02;;
76786;SDS011;65739;51.482;5.702;2024-02-04T04:34:12;19.73;;;9.63;;
76786;SDS011;65739;51.482;5.702;2024-02-04T04:36:38;17.27;;;8.75;;
76786;SDS011;65739;51.482;5.702;2024-02-04T04:39:04;17.75;;;9.30;;
76786;SDS011;65739;51.482;5.702;2024-02-04T04:41:30;17.92;;;8.98;;
76786;SDS011;65739;51.482;5.702;2024-02-04T04:43:56;17.92;;;8.88;;
76786;SDS011;65739;51.482;5.702;2024-02-04T04:46:21;16.65;;;8.75;;
76786;SDS011;65739;51.482;5.702;2024-02-04T04:48:47;18.75;;;8.75;;
76786;SDS011;65739;51.482;5.702;2024-02-04T04:51:12;18.85;;;9.93;;
76786;SDS011;65739;51.482;5.702;2024-02-04T04:53:38;18.02;;;8.27;;
76786;SDS011;65739;51.482;5.702;2024-02-04T04:56:04;18.25;;;8.63;;
76786;SDS011;65739;51.482;5.702;2024-02-04T04:58:30;23.13;;;9.20;;
76786;SDS011;65739;51.482;5.702;2024-02-04T05:00:55;14.25;;;7.95;;
76786;SDS011;65739;51.482;5.702;2024-02-04T05:03:21;16.83;;;8.57;;
76786;SDS011;65739;51.482;5.702;2024-02-04T05:05:47;19.73;;;8.85;;
76786;SDS011;65739;51.482;5.702;2024-02-04T05:08:15;20.65;;;8.32;;
76786;SDS011;65739;51.482;5.702;2024-02-04T05:10:41;18.30;;;7.68;;
76786;SDS011;65739;51.482;5.702;2024-02-04T05:13:07;17.42;;;8.23;;
76786;SDS011;65739;51.482;5.702;2024-02-04T05:15:32;18.13;;;7.70;;
76786;SDS011;65739;51.482;5.702;2024-02-04T05:17:59;12.40;;;7.88;;
76786;SDS011;65739;51.482;5.702;2024-02-04T05:20:25;19.08;;;8.35;;
76786;SDS011;65739;51.482;5.702;2024-02-04T05:22:51;18.85;;;9.45;;
76786;SDS011;65739;51.482;5.702;2024-02-04T05:25:16;18.50;;;9.43;;
76786;SDS011;65739;51.482;5.702;2024-02-04T05:27:42;20.70;;;10.50;;
76786;SDS011;65739;51.482;5.702;2024-02-04T05:30:07;18.85;;;11.15;;
76786;SDS011;65739;51.482;5.702;2024-02-04T05:32:33;18.20;;;10.63;;
76786;SDS011;65739;51.482;5.702;2024-02-04T05:34:59;20.60;;;11.48;;
76786;SDS011;65739;51.482;5.702;2024-02-04T05:37:24;21.25;;;12.23;;
76786;SDS011;65739;51.482;5.702;2024-02-04T05:39:50;21.27;;;12.70;;
76786;SDS011;65739;51.482;5.702;2024-02-04T05:42:15;25.20;;;13.25;;
76786;SDS011;65739;51.482;5.702;2024-02-04T05:44:41;26.08;;;14.68;;
76786;SDS011;65739;51.482;5.702;2024-02-04T05:47:07;26.20;;;15.63;;
76786;SDS011;65739;51.482;5.702;2024-02-04T05:49:32;30.48;;;15.75;;
76786;SDS011;65739;51.482;5.702;2024-02-04T05:51:58;30.98;;;16.33;;
76786;SDS011;65739;51.482;5.702;2024-02-04T05:54:23;23.80;;;14.95;;
76786;SDS011;65739;51.482;5.702;2024-02-04T05:56:49;24.20;;;13.75;;
76786;SDS011;65739;51.482;5.702;2024-02-04T05:59:14;27.77;;;15.98;;
76786;SDS011;65739;51.482;5.702;2024-02-04T06:01:41;26.73;;;14.63;;
76786;SDS011;65739;51.482;5.702;2024-02-04T06:04:07;25.25;;;15.23;;
76786;SDS011;65739;51.482;5.702;2024-02-04T06:06:33;26.25;;;15.57;;
76786;SDS011;65739;51.482;5.702;2024-02-04T06:08:58;26.73;;;16.20;;
76786;SDS011;65739;51.482;5.702;2024-02-04T06:11:24;30.52;;;15.55;;
76786;SDS011;65739;51.482;5.702;2024-02-04T06:13:55;23.52;;;15.20;;
76786;SDS011;65739;51.482;5.702;2024-02-04T06:16:21;27.05;;;14.45;;
76786;SDS011;65739;51.482;5.702;2024-02-04T06:18:46;23.25;;;15.02;;
76786;SDS011;65739;51.482;5.702;2024-02-04T06:21:12;26.90;;;15.82;;
76786;SDS011;65739;51.482;5.702;2024-02-04T06:23:41;25.15;;;15.13;;
76786;SDS011;65739;51.482;5.702;2024-02-04T06:26:06;23.05;;;14.88;;
76786;SDS011;65739;51.482;5.702;2024-02-04T06:28:32;23.38;;;13.75;;
76786;SDS011;65739;51.482;5.702;2024-02-04T06:30:57;22.98;;;12.38;;
76786;SDS011;65739;51.482;5.702;2024-02-04T06:33:23;21.15;;;12.30;;
76786;SDS011;65739;51.482;5.702;2024-02-04T06:35:49;24.17;;;13.40;;
76786;SDS011;65739;51.482;5.702;2024-02-04T06:38:15;24.15;;;13.43;;
76786;SDS011;65739;51.482;5.702;2024-02-04T06:40:41;23.63;;;14.40;;
76786;SDS011;65739;51.482;5.702;2024-02-04T06:43:07;26.30;;;13.48;;
76786;SDS011;65739;51.482;5.702;2024-02-04T06:45:32;17.90;;;13.60;;
76786;SDS011;65739;51.482;5.702;2024-02-04T06:47:58;19.08;;;12.95;;
76786;SDS011;65739;51.482;5.702;2024-02-04T06:50:24;20.05;;;12.63;;
76786;SDS011;65739;51.482;5.702;2024-02-04T06:52:49;19.45;;;12.18;;
76786;SDS011;65739;51.482;5.702;2024-02-04T06:55:15;21.30;;;12.88;;
76786;SDS011;65739;51.482;5.702;2024-02-04T06:57:41;21.95;;;12.05;;
76786;SDS011;65739;51.482;5.702;2024-02-04T07:00:07;23.42;;;12.10;;
76786;SDS011;65739;51.482;5.702;2024-02-04T07:02:36;21.65;;;12.95;;
76786;SDS011;65739;51.482;5.702;2024-02-04T07:05:02;22.95;;;13.52;;
76786;SDS011;65739;51.482;5.702;2024-02-04T07:07:28;23.90;;;12.98;;
76786;SDS011;65739;51.482;5.702;2024-02-04T07:09:54;26.17;;;13.07;;
76786;SDS011;65739;51.482;5.702;2024-02-04T07:12:19;21.73;;;13.27;;
76786;SDS011;65739;51.482;5.702;2024-02-04T07:14:46;30.02;;;15.05;;
76786;SDS011;65739;51.482;5.702;2024-02-04T07:17:11;30.08;;;15.98;;
76786;SDS011;65739;51.482;5.702;2024-02-04T07:19:43;26.30;;;14.57;;
76786;SDS011;65739;51.482;5.702;2024-02-04T07:22:11;29.90;;;17.13;;
76786;SDS011;65739;51.482;5.702;2024-02-04T07:24:43;34.20;;;18.27;;
76786;SDS011;65739;51.482;5.702;2024-02-04T07:27:09;34.50;;;18.45;;
76786;SDS011;65739;51.482;5.702;2024-02-04T07:29:34;32.80;;;18.73;;
76786;SDS011;65739;51.482;5.702;2024-02-04T07:32:00;36.05;;;19.48;;
76786;SDS011;65739;51.482;5.702;2024-02-04T07:34:25;33.83;;;19.35;;
76786;SDS011;65739;51.482;5.702;2024-02-04T07:36:51;33.67;;;19.27;;
76786;SDS011;65739;51.482;5.702;2024-02-04T07:39:26;30.45;;;18.77;;
76786;SDS011;65739;51.482;5.702;2024-02-04T07:41:52;30.13;;;19.25;;
76786;SDS011;65739;51.482;5.702;2024-02-04T07:44:19;33.13;;;19.65;;
76786;SDS011;65739;51.482;5.702;2024-02-04T07:46:44;34.55;;;21.23;;
76786;SDS011;65739;51.482;5.702;2024-02-04T07:49:10;36.28;;;20.70;;
76786;SDS011;65739;51.482;5.702;2024-02-04T07:51:35;37.55;;;22.33;;
76786;SDS011;65739;51.482;5.702;2024-02-04T07:54:02;43.05;;;21.65;;
76786;SDS011;65739;51.482;5.702;2024-02-04T07:56:29;39.65;;;22.25;;
76786;SDS011;65739;51.482;5.702;2024-02-04T07:58:54;38.22;;;21.60;;
76786;SDS011;65739;51.482;5.702;2024-02-04T08:01:20;39.95;;;21.70;;
76786;SDS011;65739;51.482;5.702;2024-02-04T08:03:45;37.17;;;20.52;;
76786;SDS011;65739;51.482;5.702;2024-02-04T08:06:12;34.40;;;20.02;;
76786;SDS011;65739;51.482;5.702;2024-02-04T08:08:37;32.33;;;19.52;;
76786;SDS011;65739;51.482;5.702;2024-02-04T08:11:03;33.65;;;18.88;;
76786;SDS011;65739;51.482;5.702;2024-02-04T08:13:29;31.45;;;17.27;;
76786;SDS011;65739;51.482;5.702;2024-02-04T08:15:54;29.83;;;18.10;;
76786;SDS011;65739;51.482;5.702;2024-02-04T08:18:20;31.63;;;18.08;;
76786;SDS011;65739;51.482;5.702;2024-02-04T08:20:46;30.02;;;17.70;;
76786;SDS011;65739;51.482;5.702;2024-02-04T08:23:11;27.17;;;15.57;;
76786;SDS011;65739;51.482;5.702;2024-02-04T08:25:37;34.53;;;17.30;;
76786;SDS011;65739;51.482;5.702;2024-02-04T08:28:03;29.67;;;17.10;;
76786;SDS011;65739;51.482;5.702;2024-02-04T08:30:29;24.67;;;16.25;;
76786;SDS011;65739;51.482;5.702;2024-02-04T08:32:54;30.20;;;16.58;;
76786;SDS011;65739;51.482;5.702;2024-02-04T08:35:20;26.60;;;16.00;;
76786;SDS011;65739;51.482;5.702;2024-02-04T08:37:46;28.92;;;16.92;;
76786;SDS011;65739;51.482;5.702;2024-02-04T08:40:11;31.08;;;16.38;;
76786;SDS011;65739;51.482;5.702;2024-02-04T08:42:39;27.13;;;16.67;;
76786;SDS011;65739;51.482;5.702;2024-02-04T08:45:05;30.70;;;17.10;;
76786;SDS011;65739;51.482;5.702;2024-02-04T08:47:34;27.98;;;16.17;;
76786;SDS011;65739;51.482;5.702;2024-02-04T08:50:00;33.33;;;17.27;;
76786;SDS011;65739;51.482;5.702;2024-02-04T08:52:25;29.98;;;16.98;;
76786;SDS011;65739;51.482;5.702;2024-02-04T08:54:51;29.73;;;16.98;;
76786;SDS011;65739;51.482;5.702;2024-02-04T08:57:17;31.52;;;17.67;;
76786;SDS011;65739;51.482;5.702;2024-02-04T08:59:43;33.85;;;16.92;;
76786;SDS011;65739;51.482;5.702;2024-02-04T09:02:08;27.30;;;16.90;;
76786;SDS011;65739;51.482;5.702;2024-02-04T09:04:34;30.60;;;16.75;;
76786;SDS011;65739;51.482;5.702;2024-02-04T09:07:05;31.45;;;17.35;;
76786;SDS011;65739;51.482;5.702;2024-02-04T09:09:34;35.80;;;17.70;;
76786;SDS011;65739;51.482;5.702;2024-02-04T09:11:59;33.80;;;19.70;;
76786;SDS011;65739;51.482;5.702;2024-02-04T09:14:25;28.15;;;18.65;;
76786;SDS011;65739;51.482;5.702;2024-02-04T09:16:50;35.78;;;18.58;;
76786;SDS011;65739;51.482;5.702;2024-02-04T09:19:16;29.90;;;18.67;;
76786;SDS011;65739;51.482;5.702;2024-02-04T09:21:41;31.73;;;18.40;;
76786;SDS011;65739;51.482;5.702;2024-02-04T09:24:07;29.70;;;18.80;;
76786;SDS011;65739;51.482;5.702;2024-02-04T09:26:32;30.80;;;17.85;;
76786;SDS011;65739;51.482;5.702;2024-02-04T09:28:58;27.30;;;17.80;;
76786;SDS011;65739;51.482;5.702;2024-02-04T09:31:24;26.13;;;17.23;;
76786;SDS011;65739;51.482;5.702;2024-02-04T09:33:49;25.10;;;16.33;;
76786;SDS011;65739;51.482;5.702;2024-02-04T09:36:15;25.38;;;17.52;;
76786;SDS011;65739;51.482;5.702;2024-02-04T09:38:40;29.65;;;18.10;;
76786;SDS011;65739;51.482;5.702;2024-02-04T09:41:06;27.38;;;17.08;;
76786;SDS011;65739;51.482;5.702;2024-02-04T09:43:32;26.20;;;17.40;;
76786;SDS011;65739;51.482;5.702;2024-02-04T09:45:58;26.20;;;17.33;;
76786;SDS011;65739;51.482;5.702;2024-02-04T09:48:25;26.77;;;16.95;;
76786;SDS011;65739;51.482;5.702;2024-02-04T09:50:54;26.90;;;17.85;;
76786;SDS011;65739;51.482;5.702;2024-02-04T09:53:21;25.02;;;16.83;;
76786;SDS011;65739;51.482;5.702;2024-02-04T09:55:53;26.50;;;16.90;;
76786;SDS011;65739;51.482;5.702;2024-02-04T09:58:19;24.88;;;16.90;;
76786;SDS011;65739;51.482;5.702;2024-02-04T10:00:45;24.00;;;16.83;;
76786;SDS011;65739;51.482;5.702;2024-02-04T10:03:12;28.17;;;16.40;;
76786;SDS011;65739;51.482;5.702;2024-02-04T10:05:38;24.42;;;16.15;;
76786;SDS011;65739;51.482;5.702;2024-02-04T10:08:03;25.80;;;15.70;;
76786;SDS011;65739;51.482;5.702;2024-02-04T10:10:29;26.60;;;16.05;;
76786;SDS011;65739;51.482;5.702;2024-02-04T10:12:57;27.35;;;17.15;;
76786;SDS011;65739;51.482;5.702;2024-02-04T10:15:22;23.70;;;16.10;;
76786;SDS011;65739;51.482;5.702;2024-02-04T10:17:48;26.30;;;16.00;;
76786;SDS011;65739;51.482;5.702;2024-02-04T10:20:14;28.10;;;16.23;;
76786;SDS011;65739;51.482;5.702;2024-02-04T10:22:39;28.17;;;15.75;;
76786;SDS011;65739;51.482;5.702;2024-02-04T10:25:08;27.85;;;17.05;;
76786;SDS011;65739;51.482;5.702;2024-02-04T10:27:37;30.00;;;15.85;;
76786;SDS011;65739;51.482;5.702;2024-02-04T10:30:03;29.05;;;16.67;;
76786;SDS011;65739;51.482;5.702;2024-02-04T10:32:29;28.70;;;15.80;;
76786;SDS011;65739;51.482;5.702;2024-02-04T10:34:57;28.05;;;15.52;;
76786;SDS011;65739;51.482;5.702;2024-02-04T10:37:23;24.38;;;14.95;;
76786;SDS011;65739;51.482;5.702;2024-02-04T10:39:48;23.17;;;13.23;;
76786;SDS011;65739;51.482;5.702;2024-02-04T10:42:14;21.02;;;13.85;;
76786;SDS011;65739;51.482;5.702;2024-02-04T10:44:42;21.77;;;13.13;;
76786;SDS011;65739;51.482;5.702;2024-02-04T10:47:14;25.27;;;13.45;;
76786;SDS011;65739;51.482;5.702;2024-02-04T10:49:47;21.63;;;13.23;;
76786;SDS011;65739;51.482;5.702;2024-02-04T10:52:18;22.77;;;12.95;;
76786;SDS011;65739;51.482;5.702;2024-02-04T10:54:44;19.80;;;12.48;;
76786;SDS011;65739;51.482;5.702;2024-02-04T10:57:12;20.33;;;12.70;;
76786;SDS011;65739;51.482;5.702;2024-02-04T10:59:39;20.25;;;12.25;;
76786;SDS011;65739;51.482;5.702;2024-02-04T11:02:05;17.15;;;11.98;;
76786;SDS011;65739;51.482;5.702;2024-02-04T11:04:30;19.15;;;12.50;;
76786;SDS011;65739;51.482;5.702;2024-02-04T11:06:58;20.13;;;12.38;;
76786;SDS011;65739;51.482;5.702;2024-02-04T11:09:26;19.90;;;12.15;;
76786;SDS011;65739;51.482;5.702;2024-02-04T11:11:53;19.65;;;11.85;;
76786;SDS011;65739;51.482;5.702;2024-02-04T11:14:24;22.05;;;11.57;;
76786;SDS011;65739;51.482;5.702;2024-02-04T11:22:59;23.45;;;11.85;;
76786;SDS011;65739;51.482;5.702;2024-02-04T11:25:43;20.50;;;11.77;;
76786;SDS011;65739;51.482;5.702;2024-02-04T11:28:13;21.20;;;11.23;;
76786;SDS011;65739;51.482;5.702;2024-02-04T11:30:40;20.08;;;11.30;;
76786;SDS011;65739;51.482;5.702;2024-02-04T11:33:07;24.05;;;11.88;;
76786;SDS011;65739;51.482;5.702;2024-02-04T11:35:36;20.35;;;11.32;;
76786;SDS011;65739;51.482;5.702;2024-02-04T11:38:05;17.92;;;10.65;;
76786;SDS011;65739;51.482;5.702;2024-02-04T11:40:31;19.35;;;11.88;;
76786;SDS011;65739;51.482;5.702;2024-02-04T11:43:12;22.38;;;11.93;;
76786;SDS011;65739;51.482;5.702;2024-02-04T11:45:39;23.45;;;13.23;;
76786;SDS011;65739;51.482;5.702;2024-02-04T11:48:12;20.10;;;12.43;;
76786;SDS011;65739;51.482;5.702;2024-02-04T11:50:38;21.48;;;12.95;;
76786;SDS011;65739;51.482;5.702;2024-02-04T11:53:05;20.35;;;12.57;;
76786;SDS011;65739;51.482;5.702;2024-02-04T11:55:32;21.25;;;12.75;;
76786;SDS011;65739;51.482;5.702;2024-02-04T11:57:59;20.60;;;12.27;;
76786;SDS011;65739;51.482;5.702;2024-02-04T12:00:25;21.55;;;12.75;;
76786;SDS011;65739;51.482;5.702;2024-02-04T12:03:03;21.00;;;13.40;;
76786;SDS011;65739;51.482;5.702;2024-02-04T12:05:34;21.17;;;12.18;;
76786;SDS011;65739;51.482;5.702;2024-02-04T12:08:04;19.77;;;12.20;;
76786;SDS011;65739;51.482;5.702;2024-02-04T12:10:34;21.48;;;11.93;;
76786;SDS011;65739;51.482;5.702;2024-02-04T12:13:04;18.47;;;11.30;;
76786;SDS011;65739;51.482;5.702;2024-02-04T12:15:31;18.65;;;11.77;;
76786;SDS011;65739;51.482;5.702;2024-02-04T12:18:05;18.95;;;12.02;;
76786;SDS011;65739;51.482;5.702;2024-02-04T12:20:32;19.50;;;12.15;;
76786;SDS011;65739;51.482;5.702;2024-02-04T12:22:57;20.23;;;13.52;;
76786;SDS011;65739;51.482;5.702;2024-02-04T12:25:23;24.65;;;13.25;;
76786;SDS011;65739;51.482;5.702;2024-02-04T12:27:51;21.48;;;13.38;;
76786;SDS011;65739;51.482;5.702;2024-02-04T12:30:17;26.17;;;14.98;;
76786;SDS011;65739;51.482;5.702;2024-02-04T12:32:43;22.50;;;14.07;;
76786;SDS011;65739;51.482;5.702;2024-02-04T12:35:13;23.10;;;13.68;;
76786;SDS011;65739;51.482;5.702;2024-02-04T12:37:49;25.67;;;13.50;;
76786;SDS011;65739;51.482;5.702;2024-02-04T12:40:20;24.65;;;13.75;;
76786;SDS011;65739;51.482;5.702;2024-02-04T12:42:54;23.55;;;13.90;;
76786;SDS011;65739;51.482;5.702;2024-02-04T12:45:21;18.85;;;12.95;;
76786;SDS011;65739;51.482;5.702;2024-02-04T12:47:54;21.85;;;12.77;;
76786;SDS011;65739;51.482;5.702;2024-02-04T12:52:47;18.95;;;12.57;;
76786;SDS011;65739;51.482;5.702;2024-02-04T12:55:32;22.52;;;12.35;;
76786;SDS011;65739;51.482;5.702;2024-02-04T12:58:06;23.17;;;12.48;;
76786;SDS011;65739;51.482;5.702;2024-02-04T13:00:37;29.77;;;12.50;;
76786;SDS011;65739;51.482;5.702;2024-02-04T13:03:03;23.13;;;12.02;;
76786;SDS011;65739;51.482;5.702;2024-02-04T13:05:30;17.85;;;11.25;;
76786;SDS011;65739;51.482;5.702;2024-02-04T13:07:57;16.40;;;11.70;;
76786;SDS011;65739;51.482;5.702;2024-02-04T13:10:24;18.15;;;11.32;;
76786;SDS011;65739;51.482;5.702;2024-02-04T13:15:28;20.60;;;12.05;;
76786;SDS011;65739;51.482;5.702;2024-02-04T13:17:57;16.67;;;11.30;;
76786;SDS011;65739;51.482;5.702;2024-02-04T13:20:23;16.27;;;11.05;;
76786;SDS011;65739;51.482;5.702;2024-02-04T13:22:48;18.67;;;10.90;;
76786;SDS011;65739;51.482;5.702;2024-02-04T13:25:14;19.60;;;10.73;;
76786;SDS011;65739;51.482;5.702;2024-02-04T13:27:40;15.90;;;9.93;;
76786;SDS011;65739;51.482;5.702;2024-02-04T13:30:06;11.48;;;8.95;;
76786;SDS011;65739;51.482;5.702;2024-02-04T13:32:37;14.38;;;8.35;;
76786;SDS011;65739;51.482;5.702;2024-02-04T13:35:05;12.55;;;7.32;;
76786;SDS011;65739;51.482;5.702;2024-02-04T13:37:33;11.68;;;7.57;;
76786;SDS011;65739;51.482;5.702;2024-02-04T13:40:06;14.25;;;7.53;;
76786;SDS011;65739;51.482;5.702;2024-02-04T13:42:34;8.65;;;6.93;;
76786;SDS011;65739;51.482;5.702;2024-02-04T13:45:01;11.40;;;6.80;;
76786;SDS011;65739;51.482;5.702;2024-02-04T13:47:27;11.02;;;6.00;;
76786;SDS011;65739;51.482;5.702;2024-02-04T13:49:54;9.90;;;5.93;;
76786;SDS011;65739;51.482;5.702;2024-02-04T13:52:20;7.93;;;6.22;;
76786;SDS011;65739;51.482;5.702;2024-02-04T13:54:46;6.93;;;5.35;;
76786;SDS011;65739;51.482;5.702;2024-02-04T13:57:12;7.35;;;5.40;;
76786;SDS011;65739;51.482;5.702;2024-02-04T13:59:37;7.25;;;5.22;;
76786;SDS011;65739;51.482;5.702;2024-02-04T14:02:03;10.65;;;5.20;;
76786;SDS011;65739;51.482;5.702;2024-02-04T14:04:30;10.77;;;5.65;;
76786;SDS011;65739;51.482;5.702;2024-02-04T14:06:56;9.57;;;5.10;;
76786;SDS011;65739;51.482;5.702;2024-02-04T14:09:22;7.07;;;4.70;;
76786;SDS011;65739;51.482;5.702;2024-02-04T14:11:47;8.68;;;5.38;;
76786;SDS011;65739;51.482;5.702;2024-02-04T14:14:13;11.70;;;4.97;;
76786;SDS011;65739;51.482;5.702;2024-02-04T14:16:39;7.38;;;4.75;;
76786;SDS011;65739;51.482;5.702;2024-02-04T14:19:05;7.78;;;4.80;;
76786;SDS011;65739;51.482;5.702;2024-02-04T14:21:30;10.65;;;5.18;;
76786;SDS011;65739;51.482;5.702;2024-02-04T14:23:56;5.63;;;4.43;;
76786;SDS011;65739;51.482;5.702;2024-02-04T14:26:21;9.32;;;4.97;;
76786;SDS011;65739;51.482;5.702;2024-02-04T14:28:47;8.13;;;4.70;;
76786;SDS011;65739;51.482;5.702;2024-02-04T14:31:13;6.32;;;4.53;;
76786;SDS011;65739;51.482;5.702;2024-02-04T14:33:39;7.38;;;4.50;;
76786;SDS011;65739;51.482;5.702;2024-02-04T14:36:08;5.15;;;4.18;;
76786;SDS011;65739;51.482;5.702;2024-02-04T14:38:35;5.40;;;4.45;;